createdAt,value
2018-09-15T00:00:01.141Z,5.50
2018-09-15T00:00:40.495Z,5.72
2018-09-15T00:01:14.028Z,5.75
2018-09-15T00:01:47.559Z,5.40
2018-09-15T00:02:21.096Z,5.50
2018-09-15T00:02:54.652Z,5.70
2018-09-15T00:03:28.202Z,5.60
2018-09-15T00:04:01.739Z,5.37
2018-09-15T00:04:35.220Z,5.45
2018-09-15T00:05:08.722Z,5.40
2018-09-15T00:05:42.230Z,5.60
2018-09-15T00:06:15.744Z,5.20
2018-09-15T00:06:49.564Z,5.37
2018-09-15T00:07:23.062Z,6.25
2018-09-15T00:07:56.566Z,5.28
2018-09-15T00:08:30.080Z,5.35
2018-09-15T00:09:06.571Z,5.58
2018-09-15T00:09:40.108Z,5.15
2018-09-15T00:10:13.661Z,5.28
2018-09-15T00:10:47.525Z,5.50
2018-09-15T00:11:21.044Z,5.20
2018-09-15T00:11:54.622Z,5.28
2018-09-15T00:12:28.136Z,5.35
2018-09-15T00:13:01.700Z,5.42
2018-09-15T00:13:35.213Z,5.42
2018-09-15T00:14:08.740Z,5.70
2018-09-15T00:14:42.292Z,5.33
2018-09-15T00:15:15.796Z,5.75
2018-09-15T00:15:49.614Z,5.40
2018-09-15T00:16:23.178Z,5.30
2018-09-15T00:16:56.648Z,5.25
2018-09-15T00:17:30.220Z,5.70
2018-09-15T00:18:06.244Z,5.65
2018-09-15T00:18:39.793Z,5.37
2018-09-15T00:19:13.366Z,5.67
2018-09-15T00:19:46.951Z,5.35
2018-09-15T00:20:20.507Z,5.47
2018-09-15T00:20:54.021Z,5.60
2018-09-15T00:21:27.568Z,5.50
2018-09-15T00:22:01.100Z,5.80
2018-09-15T00:22:34.687Z,5.67
2018-09-15T00:23:09.113Z,6.00
2018-09-15T00:23:42.664Z,5.83
2018-09-15T00:24:16.181Z,5.50
2018-09-15T00:24:49.675Z,6.08
2018-09-15T00:25:23.181Z,5.40
2018-09-15T00:25:56.710Z,6.10
2018-09-15T00:26:30.257Z,5.70
2018-09-15T00:27:03.843Z,6.10
2018-09-15T00:27:37.347Z,5.78
2018-09-15T00:28:11.603Z,5.95
2018-09-15T00:28:45.124Z,5.80
2018-09-15T00:29:18.617Z,6.00
2018-09-15T00:29:52.166Z,6.05
2018-09-15T00:30:25.704Z,5.80
2018-09-15T00:30:59.271Z,5.60
2018-09-15T00:31:32.802Z,5.85
2018-09-15T00:32:06.524Z,5.90
2018-09-15T00:32:40.041Z,5.90
2018-09-15T00:33:13.537Z,5.85
2018-09-15T00:33:47.090Z,6.00
2018-09-15T00:34:20.610Z,5.87
2018-09-15T00:34:54.189Z,6.33
2018-09-15T00:35:27.701Z,6.00
2018-09-15T00:36:01.229Z,5.70
2018-09-15T00:36:34.830Z,5.80
2018-09-15T00:37:08.352Z,5.90
2018-09-15T00:37:41.885Z,5.90
2018-09-15T00:38:15.415Z,5.97
2018-09-15T00:38:49.481Z,6.08
2018-09-15T00:39:22.938Z,6.42
2018-09-15T00:39:56.501Z,6.00
2018-09-15T00:40:30.105Z,6.47
2018-09-15T00:41:03.676Z,6.00
2018-09-15T00:41:37.180Z,6.05
2018-09-15T00:42:10.802Z,6.00
2018-09-15T00:42:44.549Z,6.15
2018-09-15T00:43:18.053Z,6.10
2018-09-15T00:43:51.581Z,5.97
2018-09-15T00:44:25.087Z,6.47
2018-09-15T00:44:58.600Z,5.83
2018-09-15T00:45:32.114Z,6.03
2018-09-15T00:46:05.669Z,6.42
2018-09-15T00:46:39.208Z,6.45
2018-09-15T00:47:12.751Z,6.00
2018-09-15T00:47:46.280Z,6.30
2018-09-15T00:48:19.808Z,6.10
2018-09-15T00:48:53.325Z,5.80
2018-09-15T00:49:26.816Z,6.08
2018-09-15T00:50:00.370Z,6.22
2018-09-15T00:50:33.937Z,5.90
2018-09-15T00:51:07.475Z,5.80
2018-09-15T00:51:41.012Z,5.75
2018-09-15T00:52:14.511Z,5.85
2018-09-15T00:52:48.033Z,5.97
2018-09-15T00:53:21.698Z,5.90
2018-09-15T00:53:56.703Z,5.70
2018-09-15T00:54:30.610Z,5.83
2018-09-15T00:55:04.374Z,5.65
2018-09-15T00:55:37.909Z,5.90
2018-09-15T00:56:11.449Z,6.15
2018-09-15T00:56:44.974Z,5.55
2018-09-15T00:57:18.545Z,5.80
2018-09-15T00:57:52.067Z,6.28
2018-09-15T00:58:25.574Z,5.87
2018-09-15T00:58:59.121Z,6.03
2018-09-15T00:59:32.661Z,6.00
2018-09-15T01:00:07.988Z,6.00
2018-09-15T01:00:41.525Z,5.97
2018-09-15T01:01:15.091Z,6.08
2018-09-15T01:01:48.585Z,6.00
2018-09-15T01:02:22.142Z,5.70
2018-09-15T01:02:55.712Z,6.08
2018-09-15T01:03:29.220Z,6.03
2018-09-15T01:04:03.646Z,5.75
2018-09-15T01:04:37.328Z,6.12
2018-09-15T01:05:10.865Z,5.90
2018-09-15T01:05:44.411Z,5.78
2018-09-15T01:06:18.000Z,5.80
2018-09-15T01:06:51.537Z,5.80
2018-09-15T01:07:25.061Z,5.92
2018-09-15T01:07:58.604Z,5.80
2018-09-15T01:08:32.138Z,5.90
2018-09-15T01:09:08.704Z,5.78
2018-09-15T01:09:42.260Z,5.80
2018-09-15T01:10:15.800Z,5.87
2018-09-15T01:10:49.340Z,5.87
2018-09-15T01:11:22.884Z,5.87
2018-09-15T01:11:56.418Z,6.37
2018-09-15T01:12:29.977Z,5.65
2018-09-15T01:13:03.482Z,5.87
2018-09-15T01:13:37.006Z,5.92
2018-09-15T01:14:10.606Z,5.42
2018-09-15T01:14:44.219Z,5.80
2018-09-15T01:15:17.723Z,5.85
2018-09-15T01:15:51.225Z,6.03
2018-09-15T01:16:24.827Z,5.70
2018-09-15T01:16:58.364Z,5.72
2018-09-15T01:17:31.881Z,5.80
2018-09-15T01:18:05.377Z,5.72
2018-09-15T01:18:38.878Z,6.00
2018-09-15T01:19:12.373Z,6.03
2018-09-15T01:19:46.149Z,5.92
2018-09-15T01:20:19.699Z,5.83
2018-09-15T01:20:53.213Z,6.08
2018-09-15T01:21:26.725Z,5.72
2018-09-15T01:22:00.243Z,5.50
2018-09-15T01:22:33.755Z,5.58
2018-09-15T01:23:07.323Z,5.75
2018-09-15T01:23:40.843Z,5.97
2018-09-15T01:24:14.403Z,5.55
2018-09-15T01:24:47.905Z,5.62
2018-09-15T01:25:21.419Z,5.70
2018-09-15T01:25:55.050Z,5.85
2018-09-15T01:26:28.539Z,6.10
2018-09-15T01:27:02.081Z,5.47
2018-09-15T01:27:35.646Z,5.70
2018-09-15T01:28:09.185Z,5.87
2018-09-15T01:28:42.762Z,5.62
2018-09-15T01:29:16.365Z,5.60
2018-09-15T01:29:49.915Z,5.60
2018-09-15T01:30:23.511Z,5.85
2018-09-15T01:30:57.024Z,6.62
2018-09-15T01:31:30.634Z,5.92
2018-09-15T01:32:04.212Z,5.90
2018-09-15T01:32:37.731Z,6.10
2018-09-15T01:33:11.235Z,6.20
2018-09-15T01:33:44.740Z,6.20
2018-09-15T01:34:18.276Z,5.53
2018-09-15T01:34:51.804Z,6.03
2018-09-15T01:35:25.365Z,5.90
2018-09-15T01:35:58.912Z,5.90
2018-09-15T01:36:32.409Z,6.25
2018-09-15T01:37:05.915Z,6.20
2018-09-15T01:37:39.455Z,5.67
2018-09-15T01:38:12.988Z,5.90
2018-09-15T01:38:46.537Z,6.37
2018-09-15T01:39:20.088Z,5.90
2018-09-15T01:39:53.759Z,5.95
2018-09-15T01:40:27.307Z,6.10
2018-09-15T01:41:00.841Z,5.87
2018-09-15T01:41:34.427Z,5.95
2018-09-15T01:42:07.938Z,5.93
2018-09-15T01:42:41.441Z,6.00
2018-09-15T01:43:14.943Z,5.85
2018-09-15T01:43:48.684Z,5.90
2018-09-15T01:44:22.203Z,5.95
2018-09-15T01:44:55.709Z,6.00
2018-09-15T01:45:29.264Z,6.30
2018-09-15T01:46:02.779Z,6.15
2018-09-15T01:46:36.313Z,6.30
2018-09-15T01:47:09.847Z,6.20
2018-09-15T01:47:43.395Z,6.20
2018-09-15T01:48:16.871Z,6.12
2018-09-15T01:48:50.401Z,5.90
2018-09-15T01:49:23.949Z,6.20
2018-09-15T01:49:57.483Z,6.12
2018-09-15T01:50:30.989Z,6.15
2018-09-15T01:51:04.514Z,6.10
2018-09-15T01:51:38.022Z,6.50
2018-09-15T01:52:11.617Z,6.10
2018-09-15T01:52:45.131Z,6.28
2018-09-15T01:53:18.633Z,6.28
2018-09-15T01:53:52.162Z,6.25
2018-09-15T01:54:25.703Z,6.10
2018-09-15T01:54:59.251Z,6.35
2018-09-15T01:55:32.770Z,6.30
2018-09-15T01:56:06.286Z,6.50
2018-09-15T01:56:39.819Z,6.47
2018-09-15T01:57:13.307Z,6.37
2018-09-15T01:57:46.803Z,6.33
2018-09-15T01:58:20.393Z,6.45
2018-09-15T01:58:54.107Z,6.53
2018-09-15T01:59:27.653Z,6.80
2018-09-15T02:00:01.159Z,6.58
2018-09-15T02:00:34.695Z,6.47
2018-09-15T02:01:08.203Z,6.42
2018-09-15T02:01:41.732Z,6.40
2018-09-15T02:02:15.472Z,6.10
2018-09-15T02:02:48.981Z,6.28
2018-09-15T02:03:22.590Z,6.50
2018-09-15T02:03:56.121Z,6.47
2018-09-15T02:04:29.618Z,6.70
2018-09-15T02:05:03.759Z,6.60
2018-09-15T02:05:37.282Z,6.50
2018-09-15T02:06:10.826Z,6.12
2018-09-15T02:06:44.398Z,6.35
2018-09-15T02:07:17.925Z,6.47
2018-09-15T02:07:51.428Z,6.47
2018-09-15T02:08:24.918Z,6.70
2018-09-15T02:08:58.431Z,6.80
2018-09-15T02:09:31.968Z,6.92
2018-09-15T02:10:05.634Z,6.87
2018-09-15T02:10:39.116Z,6.50
2018-09-15T02:11:12.629Z,6.50
2018-09-15T02:11:46.128Z,7.25
2018-09-15T02:12:19.632Z,6.80
2018-09-15T02:12:53.127Z,6.95
2018-09-15T02:13:26.632Z,6.92
2018-09-15T02:14:00.172Z,6.53
2018-09-15T02:14:33.707Z,6.70
2018-09-15T02:15:07.366Z,6.60
2018-09-15T02:15:40.908Z,6.60
2018-09-15T02:16:14.408Z,6.37
2018-09-15T02:16:47.972Z,7.15
2018-09-15T02:17:21.520Z,6.42
2018-09-15T02:17:55.148Z,6.95
2018-09-15T02:18:28.671Z,6.65
2018-09-15T02:19:02.215Z,6.87
2018-09-15T02:19:35.769Z,6.62
2018-09-15T02:20:09.158Z,6.58
2018-09-15T02:20:42.692Z,7.00
2018-09-15T02:21:16.258Z,6.72
2018-09-15T02:21:49.810Z,6.83
2018-09-15T02:22:23.571Z,6.60
2018-09-15T02:22:57.095Z,6.58
2018-09-15T02:23:30.628Z,6.90
2018-09-15T02:24:04.172Z,6.58
2018-09-15T02:24:37.676Z,6.50
2018-09-15T02:25:11.181Z,6.70
2018-09-15T02:25:44.710Z,6.45
2018-09-15T02:26:18.244Z,6.90
2018-09-15T02:26:51.804Z,6.55
2018-09-15T02:27:25.389Z,6.92
2018-09-15T02:27:58.896Z,6.53
2018-09-15T02:28:32.400Z,7.00
2018-09-15T02:29:05.970Z,6.80
2018-09-15T02:29:39.531Z,6.35
2018-09-15T02:30:13.088Z,6.40
2018-09-15T02:30:46.629Z,6.40
2018-09-15T02:31:20.198Z,6.42
2018-09-15T02:31:53.737Z,6.30
2018-09-15T02:32:27.343Z,6.45
2018-09-15T02:33:00.862Z,6.75
2018-09-15T02:33:34.382Z,6.42
2018-09-15T02:34:08.089Z,6.78
2018-09-15T02:34:41.619Z,6.33
2018-09-15T02:35:15.173Z,6.60
2018-09-15T02:35:48.693Z,6.30
2018-09-15T02:36:22.252Z,6.50
2018-09-15T02:36:55.818Z,6.72
2018-09-15T02:37:29.328Z,6.55
2018-09-15T02:38:02.861Z,6.30
2018-09-15T02:38:36.394Z,6.50
2018-09-15T02:39:10.822Z,6.50
2018-09-15T02:39:44.348Z,6.80
2018-09-15T02:40:17.883Z,6.47
2018-09-15T02:40:51.404Z,6.50
2018-09-15T02:41:24.898Z,6.47
2018-09-15T02:41:58.424Z,7.00
2018-09-15T02:42:31.989Z,6.80
2018-09-15T02:43:05.621Z,6.60
2018-09-15T02:43:39.138Z,6.80
2018-09-15T02:44:12.680Z,6.65
2018-09-15T02:44:46.213Z,6.30
2018-09-15T02:45:19.908Z,6.62
2018-09-15T02:45:53.482Z,6.53
2018-09-15T02:46:27.009Z,6.40
2018-09-15T02:47:00.533Z,6.80
2018-09-15T02:47:34.084Z,6.50
2018-09-15T02:48:07.632Z,6.47
2018-09-15T02:48:41.152Z,6.35
2018-09-15T02:49:14.654Z,6.27
2018-09-15T02:49:48.191Z,6.35
2018-09-15T02:50:21.731Z,6.20
2018-09-15T02:50:55.235Z,6.08
2018-09-15T02:51:28.739Z,6.05
2018-09-15T02:52:02.292Z,5.87
2018-09-15T02:52:36.033Z,6.22
2018-09-15T02:53:09.547Z,6.05
2018-09-15T02:53:43.133Z,6.50
2018-09-15T02:54:16.650Z,6.30
2018-09-15T02:54:50.237Z,6.20
2018-09-15T02:55:23.716Z,6.62
2018-09-15T02:55:57.221Z,6.03
2018-09-15T02:56:30.759Z,6.20
2018-09-15T02:57:04.562Z,6.20
2018-09-15T02:57:38.052Z,6.08
2018-09-15T02:58:11.583Z,6.15
2018-09-15T02:58:45.077Z,5.90
2018-09-15T02:59:18.700Z,5.90
2018-09-15T02:59:52.235Z,6.08
2018-09-15T03:00:25.785Z,6.07
2018-09-15T03:00:59.309Z,5.80
2018-09-15T03:01:32.824Z,6.10
2018-09-15T03:02:06.551Z,5.75
2018-09-15T03:02:40.065Z,6.00
2018-09-15T03:03:13.571Z,6.10
2018-09-15T03:03:47.071Z,5.90
2018-09-15T03:04:20.591Z,5.72
2018-09-15T03:04:54.403Z,6.05
2018-09-15T03:05:27.921Z,5.75
2018-09-15T03:06:01.453Z,5.75
2018-09-15T03:06:34.981Z,5.80
2018-09-15T03:07:08.517Z,5.97
2018-09-15T03:07:42.185Z,5.53
2018-09-15T03:08:15.731Z,5.90
2018-09-15T03:08:49.287Z,5.75
2018-09-15T03:09:22.805Z,5.97
2018-09-15T03:09:56.336Z,6.10
2018-09-15T03:10:29.885Z,5.80
2018-09-15T03:11:03.435Z,5.80
2018-09-15T03:11:36.914Z,5.70
2018-09-15T03:12:10.397Z,5.97
2018-09-15T03:12:43.920Z,5.70
2018-09-15T03:13:17.413Z,5.70
2018-09-15T03:13:50.917Z,6.10
2018-09-15T03:14:24.471Z,5.50
2018-09-15T03:14:58.023Z,5.85
2018-09-15T03:15:31.553Z,5.70
2018-09-15T03:16:05.143Z,6.00
2018-09-15T03:16:38.955Z,5.90
2018-09-15T03:17:12.465Z,5.90
2018-09-15T03:17:45.967Z,5.75
2018-09-15T03:18:19.501Z,6.05
2018-09-15T03:18:53.193Z,5.60
2018-09-15T03:19:26.735Z,5.62
2018-09-15T03:20:00.320Z,5.83
2018-09-15T03:20:33.825Z,5.87
2018-09-15T03:21:07.395Z,6.20
2018-09-15T03:21:40.933Z,6.50
2018-09-15T03:22:14.512Z,6.05
2018-09-15T03:22:48.079Z,6.00
2018-09-15T03:23:21.575Z,5.92
2018-09-15T03:23:55.081Z,5.85
2018-09-15T03:24:28.621Z,5.90
2018-09-15T03:25:02.330Z,5.70
2018-09-15T03:25:35.919Z,6.10
2018-09-15T03:26:09.523Z,5.60
2018-09-15T03:26:43.054Z,5.87
2018-09-15T03:27:16.587Z,5.55
2018-09-15T03:27:50.083Z,5.70
2018-09-15T03:28:23.639Z,5.65
2018-09-15T03:28:57.171Z,5.90
2018-09-15T03:29:30.695Z,6.00
2018-09-15T03:30:04.324Z,5.97
2018-09-15T03:30:37.851Z,5.53
2018-09-15T03:31:11.652Z,6.05
2018-09-15T03:31:45.224Z,5.47
2018-09-15T03:32:18.759Z,5.90
2018-09-15T03:32:52.287Z,5.80
2018-09-15T03:33:25.803Z,5.70
2018-09-15T03:33:59.355Z,5.40
2018-09-15T03:34:32.877Z,5.80
2018-09-15T03:35:06.459Z,5.72
2018-09-15T03:35:39.951Z,5.50
2018-09-15T03:36:13.477Z,5.87
2018-09-15T03:36:46.997Z,5.95
2018-09-15T03:37:20.497Z,5.80
2018-09-15T03:37:53.997Z,5.50
2018-09-15T03:38:27.527Z,5.50
2018-09-15T03:39:01.065Z,5.40
2018-09-15T03:39:34.596Z,5.30
2018-09-15T03:40:08.198Z,5.60
2018-09-15T03:40:41.691Z,5.40
2018-09-15T03:41:15.185Z,5.67
2018-09-15T03:41:48.744Z,5.47
2018-09-15T03:42:22.259Z,5.60
2018-09-15T03:42:55.779Z,5.60
2018-09-15T03:43:29.305Z,5.30
2018-09-15T03:44:03.025Z,5.75
2018-09-15T03:44:36.524Z,5.50
2018-09-15T03:45:10.041Z,5.70
2018-09-15T03:45:43.559Z,5.55
2018-09-15T03:46:17.115Z,5.70
2018-09-15T03:46:50.634Z,5.72
2018-09-15T03:47:24.153Z,5.75
2018-09-15T03:47:57.669Z,5.87
2018-09-15T03:48:31.169Z,5.60
2018-09-15T03:49:04.942Z,5.60
2018-09-15T03:49:38.461Z,5.60
2018-09-15T03:50:11.983Z,6.03
2018-09-15T03:50:45.496Z,5.58
2018-09-15T03:51:19.044Z,5.60
2018-09-15T03:51:52.562Z,5.50
2018-09-15T03:52:26.130Z,5.83
2018-09-15T03:52:59.646Z,5.45
2018-09-15T03:53:33.157Z,5.80
2018-09-15T03:54:07.132Z,5.95
2018-09-15T03:54:40.693Z,5.60
2018-09-15T03:55:14.231Z,5.60
2018-09-15T03:55:47.741Z,5.42
2018-09-15T03:56:21.301Z,5.60
2018-09-15T03:56:54.835Z,5.85
2018-09-15T03:57:28.377Z,5.72
2018-09-15T03:58:01.884Z,5.58
2018-09-15T03:58:35.391Z,5.65
2018-09-15T03:59:08.916Z,5.65
2018-09-15T03:59:42.420Z,5.75
2018-09-15T04:00:16.164Z,5.85
2018-09-15T04:00:51.879Z,5.87
2018-09-15T04:01:25.419Z,6.30
2018-09-15T04:01:58.944Z,5.58
2018-09-15T04:02:32.473Z,5.70
2018-09-15T04:03:05.990Z,5.92
2018-09-15T04:03:39.530Z,5.72
2018-09-15T04:04:13.060Z,5.95
2018-09-15T04:04:46.596Z,5.70
2018-09-15T04:05:20.150Z,5.87
2018-09-15T04:05:53.725Z,5.55
2018-09-15T04:06:27.269Z,5.58
2018-09-15T04:07:00.788Z,6.17
2018-09-15T04:07:34.313Z,6.25
2018-09-15T04:08:07.878Z,5.75
2018-09-15T04:08:41.411Z,6.00
2018-09-15T04:09:14.932Z,6.50
2018-09-15T04:09:48.435Z,5.80
2018-09-15T04:10:21.968Z,6.15
2018-09-15T04:10:55.489Z,5.92
2018-09-15T04:11:29.017Z,5.50
2018-09-15T04:12:02.573Z,5.90
2018-09-15T04:12:36.111Z,5.70
2018-09-15T04:13:09.633Z,6.03
2018-09-15T04:13:43.154Z,5.95
2018-09-15T04:14:16.662Z,6.10
2018-09-15T04:14:50.228Z,5.80
2018-09-15T04:15:23.799Z,6.53
2018-09-15T04:15:57.356Z,5.70
2018-09-15T04:16:30.877Z,6.00
2018-09-15T04:17:04.403Z,6.25
2018-09-15T04:17:37.923Z,5.97
2018-09-15T04:18:14.560Z,6.15
2018-09-15T04:18:48.233Z,5.90
2018-09-15T04:19:21.750Z,6.22
2018-09-15T04:19:55.236Z,6.42
2018-09-15T04:20:28.757Z,6.28
2018-09-15T04:21:02.281Z,6.15
2018-09-15T04:21:35.793Z,5.90
2018-09-15T04:22:09.341Z,6.35
2018-09-15T04:22:42.868Z,5.97
2018-09-15T04:23:16.477Z,6.33
2018-09-15T04:23:49.997Z,6.00
2018-09-15T04:24:23.556Z,6.55
2018-09-15T04:24:57.087Z,6.30
2018-09-15T04:25:30.639Z,6.45
2018-09-15T04:26:04.260Z,6.20
2018-09-15T04:26:37.784Z,6.45
2018-09-15T04:27:11.311Z,5.97
2018-09-15T04:27:44.851Z,6.60
2018-09-15T04:28:18.406Z,6.33
2018-09-15T04:28:51.907Z,6.20
2018-09-15T04:29:25.429Z,6.20
2018-09-15T04:29:58.945Z,6.00
2018-09-15T04:30:32.478Z,6.00
2018-09-15T04:31:06.103Z,6.15
2018-09-15T04:31:39.636Z,6.22
2018-09-15T04:32:13.173Z,6.50
2018-09-15T04:32:46.687Z,6.40
2018-09-15T04:33:20.202Z,6.42
2018-09-15T04:33:53.785Z,6.08
2018-09-15T04:34:27.336Z,6.00
2018-09-15T04:35:00.851Z,5.97
2018-09-15T04:35:34.381Z,6.40
2018-09-15T04:36:07.884Z,6.03
2018-09-15T04:36:41.474Z,6.67
2018-09-15T04:37:15.036Z,5.80
2018-09-15T04:37:48.558Z,6.17
2018-09-15T04:38:22.130Z,6.47
2018-09-15T04:38:55.680Z,6.10
2018-09-15T04:39:29.235Z,6.10
2018-09-15T04:40:02.865Z,6.58
2018-09-15T04:40:36.501Z,6.37
2018-09-15T04:41:10.056Z,6.10
2018-09-15T04:41:43.594Z,6.10
2018-09-15T04:42:17.096Z,6.25
2018-09-15T04:42:50.655Z,6.10
2018-09-15T04:43:24.179Z,6.50
2018-09-15T04:43:57.681Z,6.53
2018-09-15T04:44:31.265Z,6.83
2018-09-15T04:45:04.861Z,6.80
2018-09-15T04:45:38.428Z,6.50
2018-09-15T04:46:11.930Z,6.47
2018-09-15T04:46:45.438Z,6.27
2018-09-15T04:47:18.963Z,6.55
2018-09-15T04:47:52.483Z,6.55
2018-09-15T04:48:26.003Z,6.50
2018-09-15T04:48:59.522Z,6.83
2018-09-15T04:49:33.056Z,6.50
2018-09-15T04:50:06.592Z,6.33
2018-09-15T04:50:40.140Z,6.42
2018-09-15T04:51:13.674Z,6.55
2018-09-15T04:51:47.183Z,6.33
2018-09-15T04:52:20.692Z,6.33
2018-09-15T04:52:54.188Z,6.50
2018-09-15T04:53:27.739Z,6.35
2018-09-15T04:54:01.274Z,6.53
2018-09-15T04:54:34.795Z,6.30
2018-09-15T04:55:08.363Z,6.40
2018-09-15T04:55:41.920Z,6.37
2018-09-15T04:56:15.449Z,6.50
2018-09-15T04:56:48.995Z,7.30
2018-09-15T04:57:22.778Z,6.70
2018-09-15T04:57:56.356Z,6.70
2018-09-15T04:58:29.901Z,6.70
2018-09-15T04:59:03.471Z,6.70
2018-09-15T04:59:37.019Z,6.67
2018-09-15T05:00:10.627Z,6.40
2018-09-15T05:00:44.203Z,6.60
2018-09-15T05:01:17.747Z,6.83
2018-09-15T05:01:51.303Z,6.70
2018-09-15T05:02:24.838Z,6.45
2018-09-15T05:02:58.366Z,6.65
2018-09-15T05:03:31.959Z,6.70
2018-09-15T05:04:05.515Z,6.90
2018-09-15T05:04:39.031Z,6.55
2018-09-15T05:05:12.582Z,6.83
2018-09-15T05:05:46.105Z,7.00
2018-09-15T05:06:19.895Z,6.70
2018-09-15T05:06:53.405Z,6.65
2018-09-15T05:07:27.056Z,6.47
2018-09-15T05:08:00.612Z,6.50
2018-09-15T05:08:34.108Z,7.30
2018-09-15T05:09:10.585Z,6.58
2018-09-15T05:09:44.100Z,6.62
2018-09-15T05:10:17.624Z,6.75
2018-09-15T05:10:51.143Z,6.80
2018-09-15T05:11:24.696Z,6.80
2018-09-15T05:11:58.244Z,6.42
2018-09-15T05:12:31.812Z,6.78
2018-09-15T05:13:05.332Z,6.60
2018-09-15T05:13:38.864Z,6.40
2018-09-15T05:14:12.361Z,6.85
2018-09-15T05:14:45.908Z,6.37
2018-09-15T05:15:19.440Z,6.55
2018-09-15T05:15:52.970Z,6.33
2018-09-15T05:16:26.460Z,6.90
2018-09-15T05:16:59.985Z,6.08
2018-09-15T05:17:33.513Z,6.55
2018-09-15T05:18:07.024Z,6.10
2018-09-15T05:18:40.540Z,6.40
2018-09-15T05:19:14.071Z,6.30
2018-09-15T05:19:47.658Z,5.90
2018-09-15T05:20:21.152Z,6.00
2018-09-15T05:20:54.688Z,6.05
2018-09-15T05:21:28.240Z,6.50
2018-09-15T05:22:01.738Z,5.97
2018-09-15T05:22:35.291Z,5.95
2018-09-15T05:23:08.811Z,6.10
2018-09-15T05:23:42.372Z,6.30
2018-09-15T05:24:15.884Z,5.80
2018-09-15T05:24:49.432Z,6.00
2018-09-15T05:25:22.953Z,5.65
2018-09-15T05:25:56.482Z,5.92
2018-09-15T05:26:30.004Z,5.90
2018-09-15T05:27:03.599Z,5.72
2018-09-15T05:27:37.112Z,5.80
2018-09-15T05:28:10.609Z,5.80
2018-09-15T05:28:44.130Z,5.90
2018-09-15T05:29:17.656Z,6.00
2018-09-15T05:29:51.190Z,6.28
2018-09-15T05:30:24.753Z,6.15
2018-09-15T05:30:58.285Z,5.65
2018-09-15T05:31:31.804Z,5.92
2018-09-15T05:32:05.462Z,5.72
2018-09-15T05:32:39.034Z,6.25
2018-09-15T05:33:12.663Z,5.92
2018-09-15T05:33:46.180Z,5.75
2018-09-15T05:34:19.713Z,5.87
2018-09-15T05:34:53.241Z,5.87
2018-09-15T05:35:26.804Z,5.80
2018-09-15T05:36:00.355Z,5.97
2018-09-15T05:36:33.964Z,5.78
2018-09-15T05:37:07.473Z,6.30
2018-09-15T05:37:41.036Z,6.30
2018-09-15T05:38:14.565Z,5.95
2018-09-15T05:38:48.073Z,6.30
2018-09-15T05:39:21.600Z,5.90
2018-09-15T05:39:55.180Z,6.20
2018-09-15T05:40:28.645Z,6.50
2018-09-15T05:41:02.199Z,6.10
2018-09-15T05:41:35.740Z,5.70
2018-09-15T05:42:09.309Z,6.03
2018-09-15T05:42:42.838Z,5.83
2018-09-15T05:43:16.364Z,5.75
2018-09-15T05:43:49.869Z,5.80
2018-09-15T05:44:23.385Z,6.42
2018-09-15T05:44:56.904Z,6.05
2018-09-15T05:45:30.453Z,5.60
2018-09-15T05:46:04.015Z,6.00
2018-09-15T05:46:37.872Z,5.75
2018-09-15T05:47:11.402Z,6.08
2018-09-15T05:47:44.895Z,5.70
2018-09-15T05:48:18.399Z,5.70
2018-09-15T05:48:52.031Z,5.70
2018-09-15T05:49:25.592Z,5.90
2018-09-15T05:49:59.131Z,6.00
2018-09-15T05:50:32.651Z,5.80
2018-09-15T05:51:06.179Z,5.90
2018-09-15T05:51:39.705Z,6.03
2018-09-15T05:52:13.335Z,5.92
2018-09-15T05:52:46.912Z,6.03
2018-09-15T05:53:20.426Z,5.45
2018-09-15T05:53:53.914Z,5.87
2018-09-15T05:54:27.408Z,5.67
2018-09-15T05:55:00.919Z,5.50
2018-09-15T05:55:34.432Z,5.95
2018-09-15T05:56:08.025Z,5.83
2018-09-15T05:56:41.529Z,5.75
2018-09-15T05:57:15.251Z,5.85
2018-09-15T05:57:48.798Z,5.50
2018-09-15T05:58:22.383Z,5.60
2018-09-15T05:58:55.931Z,5.70
2018-09-15T05:59:29.521Z,6.00
2018-09-15T06:00:03.167Z,6.00
2018-09-15T06:00:36.760Z,6.03
2018-09-15T06:01:10.297Z,5.50
2018-09-15T06:01:43.917Z,5.50
2018-09-15T06:02:17.344Z,5.40
2018-09-15T06:02:50.825Z,5.87
2018-09-15T06:03:24.349Z,5.90
2018-09-15T06:03:57.881Z,5.80
2018-09-15T06:04:31.392Z,5.92
2018-09-15T06:05:05.249Z,5.90
2018-09-15T06:05:38.787Z,5.47
2018-09-15T06:06:12.338Z,5.80
2018-09-15T06:06:45.876Z,5.60
2018-09-15T06:07:19.394Z,5.55
2018-09-15T06:07:52.881Z,5.75
2018-09-15T06:08:26.369Z,5.90
2018-09-15T06:08:59.889Z,5.50
2018-09-15T06:09:33.409Z,5.40
2018-09-15T06:10:07.017Z,5.50
2018-09-15T06:10:40.529Z,5.60
2018-09-15T06:11:14.042Z,5.70
2018-09-15T06:11:47.575Z,5.60
2018-09-15T06:12:21.110Z,5.58
2018-09-15T06:12:54.667Z,5.78
2018-09-15T06:13:28.205Z,5.45
2018-09-15T06:14:01.750Z,5.78
2018-09-15T06:14:35.233Z,5.40
2018-09-15T06:15:08.851Z,5.70
2018-09-15T06:15:42.415Z,5.47
2018-09-15T06:16:15.949Z,5.78
2018-09-15T06:16:49.463Z,5.72
2018-09-15T06:17:23.004Z,5.67
2018-09-15T06:17:56.499Z,5.85
2018-09-15T06:18:30.009Z,5.90
2018-09-15T06:19:03.811Z,5.40
2018-09-15T06:19:37.361Z,5.70
2018-09-15T06:20:10.931Z,5.60
2018-09-15T06:20:44.459Z,5.80
2018-09-15T06:21:18.003Z,5.55
2018-09-15T06:22:40.608Z,5.50
2018-09-15T06:23:14.133Z,5.60
2018-09-15T06:23:47.697Z,5.53
2018-09-15T06:24:21.273Z,5.53
2018-09-15T06:24:54.803Z,5.70
2018-09-15T06:25:28.353Z,5.55
2018-09-15T06:26:01.880Z,5.85
2018-09-15T06:26:35.485Z,5.95
2018-09-15T06:27:09.051Z,5.80
2018-09-15T06:27:42.573Z,5.70
2018-09-15T06:28:16.096Z,5.60
2018-09-15T06:28:49.681Z,5.83
2018-09-15T06:29:23.215Z,5.50
2018-09-15T06:29:56.766Z,5.65
2018-09-15T06:30:30.301Z,5.80
2018-09-15T06:31:03.857Z,5.60
2018-09-15T06:31:37.379Z,5.92
2018-09-15T06:32:10.939Z,5.62
2018-09-15T06:32:44.515Z,5.70
2018-09-15T06:33:18.069Z,5.80
2018-09-15T06:33:51.732Z,5.92
2018-09-15T06:34:25.280Z,5.72
2018-09-15T06:34:58.821Z,5.70
2018-09-15T06:35:32.437Z,5.87
2018-09-15T06:36:05.974Z,5.78
2018-09-15T06:36:39.687Z,5.97
2018-09-15T06:37:13.221Z,5.30
2018-09-15T06:37:46.763Z,5.67
2018-09-15T06:38:20.283Z,5.90
2018-09-15T06:38:54.122Z,5.65
2018-09-15T06:39:27.707Z,6.10
2018-09-15T06:40:01.237Z,5.60
2018-09-15T06:40:34.769Z,5.80
2018-09-15T06:41:08.343Z,5.53
2018-09-15T06:41:41.875Z,5.60
2018-09-15T06:42:15.394Z,5.42
2018-09-15T06:42:48.875Z,5.53
2018-09-15T06:43:22.353Z,6.00
2018-09-15T06:43:55.873Z,5.53
2018-09-15T06:44:29.393Z,5.55
2018-09-15T06:45:02.944Z,5.70
2018-09-15T06:45:36.589Z,5.40
2018-09-15T06:46:10.028Z,5.40
2018-09-15T06:46:43.653Z,5.62
2018-09-15T06:47:17.177Z,5.60
2018-09-15T06:47:50.791Z,5.72
2018-09-15T06:48:24.311Z,5.72
2018-09-15T06:48:57.817Z,5.65
2018-09-15T06:49:31.342Z,5.60
2018-09-15T06:50:05.401Z,5.45
2018-09-15T06:50:38.935Z,5.83
2018-09-15T06:51:12.509Z,5.40
2018-09-15T06:51:46.023Z,5.70
2018-09-15T06:52:19.546Z,6.10
2018-09-15T06:52:53.050Z,5.40
2018-09-15T06:53:26.567Z,5.40
2018-09-15T06:54:00.683Z,5.40
2018-09-15T06:54:34.225Z,5.42
2018-09-15T06:55:07.861Z,5.60
2018-09-15T06:55:41.397Z,5.70
2018-09-15T06:56:14.892Z,5.83
2018-09-15T06:56:48.461Z,5.62
2018-09-15T06:57:21.997Z,5.80
2018-09-15T06:57:55.509Z,5.70
2018-09-15T06:58:29.033Z,5.70
2018-09-15T06:59:02.572Z,5.78
2018-09-15T06:59:36.103Z,5.72
2018-09-15T07:00:09.629Z,5.70
2018-09-15T07:00:43.195Z,5.92
2018-09-15T07:01:16.685Z,5.70
2018-09-15T07:01:50.225Z,5.60
2018-09-15T07:02:23.753Z,5.97
2018-09-15T07:02:57.263Z,5.70
2018-09-15T07:03:30.779Z,5.80
2018-09-15T07:04:04.325Z,5.83
2018-09-15T07:04:37.833Z,5.95
2018-09-15T07:05:11.487Z,5.50
2018-09-15T07:05:45.025Z,5.70
2018-09-15T07:06:18.533Z,5.92
2018-09-15T07:06:52.118Z,5.80
2018-09-15T07:07:25.598Z,5.50
2018-09-15T07:07:59.191Z,5.67
2018-09-15T07:08:32.767Z,5.80
2018-09-15T07:09:15.772Z,5.65
2018-09-15T07:09:49.289Z,5.72
2018-09-15T07:10:22.767Z,5.40
2018-09-15T07:10:56.291Z,5.58
2018-09-15T07:11:29.808Z,5.50
2018-09-15T07:12:03.343Z,5.60
2018-09-15T07:12:36.917Z,5.53
2018-09-15T07:13:10.633Z,5.58
2018-09-15T07:13:44.149Z,5.60
2018-09-15T07:14:17.701Z,5.75
2018-09-15T07:14:51.297Z,5.60
2018-09-15T07:15:24.822Z,5.70
2018-09-15T07:15:58.365Z,6.08
2018-09-15T07:16:32.517Z,5.50
2018-09-15T07:17:06.123Z,5.92
2018-09-15T07:17:39.711Z,5.50
2018-09-15T07:18:13.231Z,5.90
2018-09-15T07:18:46.851Z,5.62
2018-09-15T07:19:20.413Z,5.60
2018-09-15T07:19:54.036Z,5.55
2018-09-15T07:20:27.567Z,5.90
2018-09-15T07:21:01.316Z,6.00
2018-09-15T07:21:34.843Z,5.78
2018-09-15T07:22:08.359Z,5.90
2018-09-15T07:22:41.861Z,5.80
2018-09-15T07:23:15.365Z,6.30
2018-09-15T07:23:48.857Z,6.03
2018-09-15T07:24:22.357Z,5.83
2018-09-15T07:24:55.869Z,6.10
2018-09-15T07:25:29.375Z,6.10
2018-09-15T07:26:02.993Z,6.22
2018-09-15T07:26:36.511Z,5.80
2018-09-15T07:27:10.059Z,5.95
2018-09-15T07:27:43.593Z,6.08